Beavertown, Pennsylvania
Current Conditions -  °F | °C
As of 6:33 PM on Monday 22 Dec 2014 (Local Time) from KSEG Reporting Station
Light Rain Light Rain  
Wind Chill: 33°   Ceiling: 3700
Heat Index: 33°   Visibility: 3mi
Dew Point: 31°   Wind: 0mph
Humidity: 92%   Direction: NA
Pressure: 30.18"   Gusts: NA
Location:  40.75°N, 77.17°W
Report Text: KSEG 222333Z AUTO 00000KT 3SM -RA BR SCT021 BKN037 OVC046 01/M01 A3018 RMK AO2 RAE13B27UPB22E27 P0000 T00061006
Loading
Personal Weather Stations






























Interactive Weather Map New forecast layout! Learn more

10-Day Weather Forecast

Advertisements
Track Severe Weather on mobile